Leni P. — A8XW5 — position and weather

sailwx.info

Track history (hours):
 
Tides and Currents Weather Stations Pressure Air Temp Water Temp Dewpoint Dewpoint Depression Visibility Wind Speed Wind Dir Waves Ship Positions

Leni P.

Last reported at 2014-Nov-01 21:03 UTC. Time now 2014-Nov-26 05:22 UTC.
Position N 33°11' W 010°21'.
Warning: this ship's position is 24 days out of date.

Length 274 m; draft 13.9 m.

Type: Tanker. MMSI: 636014986.

Date/timePositionNaut miles runAvg speedWind from/ knotsBaromVisibWave heightAir tempDewpointWater temp
2014-Nov-01 21:03N 33°11' W 010°21'2811.1
2014-Nov-01 18:32N 32°50' W 010°42'2211.1
2014-Nov-01 16:31N 32°32' W 010°59'4410.9
2014-Nov-01 12:27N 31°59' W 011°33'3511.5
2014-Nov-01 09:24N 31°31' W 011°59'1011.7
2014-Nov-01 08:33N 31°24' W 012°07'1211.6
2014-Nov-01 07:33N 31°15' W 012°15'2411.6
2014-Nov-01 05:32N 30°56' W 012°32'6611.1
2014-Oct-31 23:33N 30°06' W 013°23'  
Track history (hours):
 
Tides and Currents Weather Stations Pressure Air Temp Water Temp Dewpoint Dewpoint Depression Visibility Wind Speed Wind Dir Waves Ship Positions

Leni P.

Last reported at 2014-Nov-01 21:03 UTC. Time now 2014-Nov-26 05:22 UTC.
Position N 33°11' W 010°21'.
Warning: this ship's position is 24 days out of date.

Length 274 m; draft 13.9 m.

Type: Tanker. MMSI: 636014986.

Date/timePositionNaut miles runAvg speedWind from/ knotsBaromVisibWave heightAir tempDewpointWater temp
2014-Nov-01 21:03N 33°11' W 010°21'2811.1
2014-Nov-01 18:32N 32°50' W 010°42'2211.1
2014-Nov-01 16:31N 32°32' W 010°59'4410.9
2014-Nov-01 12:27N 31°59' W 011°33'3511.5
2014-Nov-01 09:24N 31°31' W 011°59'1011.7
2014-Nov-01 08:33N 31°24' W 012°07'1211.6
2014-Nov-01 07:33N 31°15' W 012°15'2411.6
2014-Nov-01 05:32N 30°56' W 012°32'6611.1
2014-Oct-31 23:33N 30°06' W 013°23'  

Dump ship's entire track history